This is the latest recevied weather packets stored in our database for station/object PY2KO-3. If no packets are shown the sender has not sent any weather packets the latest 10 day(s).
| Time | Temp. | Humidity | Pressure | Rain* | Wind** | Luminosity | Snow |
|---|---|---|---|---|---|---|---|
| 1777357151 | 21.11° C | 91% | 1018 hPa | - | - | - | - |
| 1777356251 | 21.11° C | 91% | 1017.9 hPa | - | - | - | - |
| 1777355351 | 21.11° C | 90% | 1018 hPa | - | - | - | - |
| 1777354451 | 21.11° C | 90% | 1018.1 hPa | - | - | - | - |
| 1777353551 | 21.11° C | 90% | 1018.2 hPa | - | - | - | - |
| 1777352651 | 21.11° C | 90% | 1018 hPa | - | - | - | - |
| 1777351751 | 21.11° C | 90% | 1018 hPa | - | - | - | - |
| 1777350851 | 21.11° C | 89% | 1017.9 hPa | - | - | - | - |
| 1777349951 | 21.11° C | 90% | 1018.2 hPa | - | - | - | - |
| 1777349051 | 21.11° C | 91% | 1018.1 hPa | - | - | - | - |
| 1777348151 | 21.11° C | 91% | 1018.3 hPa | - | - | - | - |
| 1777347251 | 21.11° C | 91% | 1018.3 hPa | - | - | - | - |
| 1777346351 | 21.11° C | 89% | 1018.6 hPa | - | - | - | - |
| 1777345451 | 21.11° C | 88% | 1018.9 hPa | - | - | - | - |
| 1777344552 | 21.11° C | 88% | 1019 hPa | - | - | - | - |
| 1777343652 | 21.11° C | 89% | 1019.2 hPa | - | - | - | - |
| 1777342751 | 21.11° C | 89% | 1019.4 hPa | - | - | - | - |
| 1777341853 | 21.67° C | 89% | 1019 hPa | - | - | - | - |
| 1777340952 | 21.11° C | 90% | 1019.6 hPa | - | - | - | - |
| 1777340052 | 21.67° C | 90% | 1019.6 hPa | - | - | - | - |
| 1777339152 | 21.11° C | 90% | 1019.4 hPa | - | - | - | - |
| 1777338254 | 21.11° C | 92% | 1019.4 hPa | - | - | - | - |
| 1777337352 | 20.56° C | 93% | 1019.5 hPa | - | - | - | - |
| 1777336454 | 22.22° C | 85% | 1018.8 hPa | - | - | - | - |
| 1777335552 | 22.22° C | 84% | 1018.7 hPa | - | - | - | - |
* Rain since midnight (hover to see other rain measurements)
** Current wind speed in m/s (hover to see current wind gust speed)